Flight Track Log - Related Links

Times and Time Zones

All times are in EDT time to prevent confusion due to time zone crossing. See the CNS331 flight status page for this flight to view local times or setup timezone preferences in your user account.

Time Position Orientation Groundspeed Altitude Reporting Facility
EDT Latitude Longitude Course Direction KTS MPH feet Rate Location/Type
Mon 06:51:47 PM 33.5872 -86.7369 83° East 123 142 2,300  Level Atlanta Center
Mon 06:52:48 PM 33.5925 -86.6847 83° East 171 197 4,000 1,513 Climbing Atlanta Center
Mon 06:53:42 PM 33.5958 -86.6350 85° East 179 206 5,200 1,471 Climbing Atlanta Center
Mon 06:54:30 PM 33.6072 -86.5803 76° East 171 197 6,500 1,448 Climbing Atlanta Center
Mon 06:55:38 PM 33.6128 -86.5208 84° East 198 228 8,000 1,400 Climbing Atlanta Center
Mon 06:56:30 PM 33.6222 -86.4611 79° East 207 238 9,300 1,500 Climbing Atlanta Center
Mon 06:57:30 PM 33.6297 -86.3964 82° East 207 238 10,800 1,350 Climbing Atlanta Center
Mon 06:58:30 PM 33.6372 -86.3317 82° East 195 224 12,000 1,250 Climbing Atlanta Center
Mon 06:59:30 PM 33.6489 -86.2622 79° East 201 231 13,300 750 Climbing Atlanta Center
Mon 07:00:30 PM 33.6567 -86.1850 83° East 214 246 13,500 100 Climbing Atlanta Center
Mon 07:01:30 PM 33.6706 -86.0956 79° East 245 282 13,500  Level Atlanta Center
Mon 07:02:30 PM 33.6783 -86.0083 84° East 256 295 13,500  Level Atlanta Center
Mon 07:03:30 PM 33.6944 -85.9189 78° East 262 302 13,500  Level Atlanta Center
Mon 07:04:30 PM 33.7039 -85.8317 83° East 262 302 13,500  Level Atlanta Center
Mon 07:05:30 PM 33.7136 -85.7469 82° East 257 296 13,500  Level Atlanta Center
Mon 07:06:30 PM 33.7231 -85.6597 83° East 257 296 13,500  Level Atlanta Center
Mon 07:07:30 PM 33.7347 -85.5725 81° East 263 303 13,500 -250 Level Atlanta Center
Mon 07:08:30 PM 33.7442 -85.4828 83° East 263 303 13,000 -600 Descending Atlanta Center
Mon 07:09:30 PM 33.7556 -85.3906 82° East 269 310 12,300 -1,100 Descending Atlanta Center
Mon 07:10:30 PM 33.7669 -85.2983 82° East 275 316 10,800 -1,400 Descending Atlanta Center
Mon 07:11:30 PM 33.7761 -85.2108 83° East 275 316 9,500 -1,000 Descending Atlanta Center
Mon 07:12:30 PM 33.7853 -85.1361 82° East 241 277 8,800 -700 Descending Atlanta Center
Mon 07:13:30 PM 33.7919 -85.0686 83° East 222 255 8,100 -800 Descending Atlanta Center
Mon 07:14:30 PM 33.8011 -84.9939 82° East 222 255 7,200 -800 Descending Atlanta Center
Mon 07:15:30 PM 33.8078 -84.9214 84° East 217 250 6,500 -700 Descending Atlanta Center
Mon 07:16:30 PM 33.8167 -84.8514 81° East 217 250 5,800 -785 Descending Atlanta Center
Mon 07:17:17 PM 33.8167 -84.7833 90° East 213 245 5,100 -841 Descending Atlanta TRACON
Mon 07:18:17 PM 33.8333 -84.7167 73° East 211 243 4,300 -650 Descending Atlanta TRACON
Mon 07:19:17 PM 33.8333 -84.6500 90° East 206 237 3,800 -250 Descending Atlanta TRACON
Mon 07:20:17 PM 33.8500 -84.5833 73° East 197 227 3,800  Level Atlanta TRACON
Mon 07:21:17 PM 33.8500 -84.5167 90° East 196 226 3,800  Level Atlanta TRACON
Mon 07:22:17 PM 33.8667 -84.4500 73° East 195 224 3,800 -400 Level Atlanta TRACON
Mon 07:23:17 PM 33.8667 -84.3833 90° East 201 231 3,000 -991 Descending Atlanta TRACON
Mon 07:24:12 PM 33.8500 -84.3333 112° Southeast 168 193 1,900 -1,200 Descending Atlanta TRACON
Mon 07:26:00 PM 33.8667 -84.3000 90° East  Level FlightAware Approximate
Mon 07:33:00 PM 33.8756 -84.3020 90° East  Level Estimated
Mon 07:34:00 PM 33.8756 -84.3020 90° East  Level Estimated

Login

Don't have an account? Register now (free) for customized features, flight alerts, and more!